createdAt,value
2019-05-09T00:03:09.392Z,1.13
2019-05-09T00:13:10.314Z,0.30
2019-05-09T00:23:13.384Z,0.40
2019-05-09T00:33:14.302Z,0.70
2019-05-09T00:43:16.963Z,0.40
2019-05-09T00:53:18.030Z,0.80
2019-05-09T01:03:18.704Z,0.77
2019-05-09T01:13:19.567Z,1.63
2019-05-09T01:23:20.511Z,0.83
2019-05-09T01:33:21.301Z,1.23
2019-05-09T01:43:24.322Z,0.80
2019-05-09T01:53:25.037Z,1.10
2019-05-09T02:03:27.886Z,2.03
2019-05-09T02:13:28.597Z,1.60
2019-05-09T02:23:29.522Z,1.60
2019-05-09T02:33:30.221Z,1.77
2019-05-09T02:43:31.132Z,1.83
2019-05-09T02:53:33.000Z,2.10
2019-05-09T03:03:33.657Z,2.53
2019-05-09T03:13:34.582Z,3.27
2019-05-09T03:23:38.522Z,2.47
2019-05-09T03:33:40.650Z,2.77
2019-05-09T03:43:41.096Z,2.80
2019-05-09T03:53:53.751Z,3.03
2019-05-09T04:03:54.732Z,3.30
2019-05-09T04:13:58.043Z,3.40
2019-05-09T04:23:58.673Z,4.13
2019-05-09T04:33:59.649Z,3.93
2019-05-09T04:44:00.293Z,4.13
2019-05-09T04:54:00.979Z,3.10
2019-05-09T05:04:01.968Z,3.50
2019-05-09T05:14:02.745Z,2.93
2019-05-09T05:24:03.408Z,3.10
2019-05-09T05:34:04.294Z,1.90
2019-05-09T05:44:04.932Z,1.70
2019-05-09T05:54:07.803Z,0.83
2019-05-09T06:04:08.782Z,0.60
2019-05-09T06:14:11.933Z,0.60
2019-05-09T06:24:12.333Z,0.40
2019-05-09T06:34:13.246Z,0.40
2019-05-09T06:44:17.245Z,0.40
2019-05-09T06:54:17.460Z,0.47
2019-05-09T07:04:18.430Z,0.40
2019-05-09T07:14:28.971Z,0.60
2019-05-09T07:24:23.227Z,0.33
2019-05-09T07:34:24.103Z,0.30
2019-05-09T07:44:24.716Z,0.53
2019-05-09T07:54:28.481Z,0.50
2019-05-09T08:04:29.595Z,0.20
2019-05-09T08:14:30.563Z,0.30
2019-05-09T08:24:31.533Z,0.20
2019-05-09T08:34:32.431Z,0.10
2019-05-09T08:44:33.290Z,0.00
2019-05-09T08:54:34.177Z,0.40
2019-05-09T09:04:38.393Z,0.10
2019-05-09T09:14:39.434Z,0.17
2019-05-09T09:24:41.361Z,0.20
2019-05-09T09:34:42.023Z,0.30
2019-05-09T09:44:42.663Z,0.57
2019-05-09T09:54:43.457Z,0.60
2019-05-09T10:04:44.395Z,0.40
2019-05-09T10:14:45.304Z,0.43
2019-05-09T10:24:47.842Z,0.40
2019-05-09T10:34:49.520Z,0.37
2019-05-09T10:44:50.129Z,1.93
2019-05-09T10:54:50.978Z,0.30
2019-05-09T11:04:51.903Z,0.17
2019-05-09T11:14:55.798Z,0.20
2019-05-09T11:24:57.946Z,0.20
2019-05-09T11:34:58.947Z,0.30
2019-05-09T11:44:59.912Z,2.70
2019-05-09T11:55:00.593Z,0.30
2019-05-09T12:05:01.663Z,0.30
2019-05-09T12:15:08.598Z,0.40
2019-05-09T12:25:09.303Z,0.50
2019-05-09T12:35:10.038Z,1.80
2019-05-09T12:45:12.609Z,0.40
2019-05-09T12:55:14.356Z,0.60
2019-05-09T13:05:15.128Z,0.60
2019-05-09T13:15:18.525Z,1.10
2019-05-09T13:25:20.310Z,0.37
2019-05-09T13:35:21.201Z,0.50
2019-05-09T13:45:22.070Z,0.60
2019-05-09T13:55:24.004Z,0.10
2019-05-09T14:05:25.694Z,0.10
2019-05-09T14:15:27.469Z,0.20
2019-05-09T14:25:29.178Z,0.20
2019-05-09T14:35:30.229Z,0.10
2019-05-09T14:45:31.129Z,0.20
2019-05-09T14:55:32.094Z,0.70
2019-05-09T15:05:32.840Z,1.20
2019-05-09T15:15:33.559Z,0.63
2019-05-09T15:25:34.258Z,0.20
2019-05-09T15:35:35.018Z,0.20
2019-05-09T15:45:36.432Z,0.10
2019-05-09T15:55:37.526Z,0.10
2019-05-09T16:05:38.625Z,0.23
2019-05-09T16:15:39.641Z,0.30
2019-05-09T16:25:40.672Z,0.50
2019-05-09T16:35:41.484Z,0.20
2019-05-09T16:45:42.411Z,0.10
2019-05-09T16:55:43.301Z,0.20
2019-05-09T17:05:44.174Z,0.20
2019-05-09T17:15:45.237Z,0.10
2019-05-09T17:25:47.997Z,0.30
2019-05-09T17:35:48.518Z,0.10
2019-05-09T17:45:49.229Z,0.10
2019-05-09T17:55:50.161Z,0.20
2019-05-09T18:05:51.156Z,0.10
2019-05-09T18:15:51.898Z,0.20
2019-05-09T18:25:52.823Z,0.20
2019-05-09T18:35:53.627Z,0.40
2019-05-09T18:45:54.623Z,0.30
2019-05-09T18:55:55.692Z,0.30
2019-05-09T19:05:56.333Z,0.30
2019-05-09T19:15:58.436Z,0.23
2019-05-09T19:25:59.708Z,0.20
2019-05-09T19:36:00.697Z,0.33
2019-05-09T19:46:02.448Z,0.30
2019-05-09T19:56:03.091Z,0.30
2019-05-09T20:06:04.092Z,0.13
2019-05-09T20:16:04.916Z,0.13
2019-05-09T20:26:05.596Z,0.20
2019-05-09T20:36:06.589Z,0.20
2019-05-09T20:46:10.240Z,0.30
2019-05-09T20:56:10.068Z,0.80
2019-05-09T21:06:13.072Z,0.60
2019-05-09T21:16:14.077Z,0.30
2019-05-09T21:26:18.318Z,0.50
2019-05-09T21:36:20.294Z,0.47
2019-05-09T21:46:21.235Z,0.63
2019-05-09T21:56:22.224Z,0.40
2019-05-09T22:06:23.122Z,0.40
2019-05-09T22:16:23.795Z,0.40
2019-05-09T22:26:24.434Z,0.70
2019-05-09T22:36:25.155Z,0.77
2019-05-09T22:46:25.815Z,0.80
2019-05-09T22:56:30.509Z,1.10
2019-05-09T23:06:31.120Z,1.07
2019-05-09T23:16:34.142Z,0.80
2019-05-09T23:26:34.870Z,0.90
2019-05-09T23:36:37.647Z,0.83
2019-05-09T23:46:38.329Z,0.90
2019-05-09T23:56:39.435Z,0.97
